Time,TemperatureF,DewpointF,PressureIn,WindDirection,WindDirectionDegrees,WindSpeedMPH,WindSpeedGustMPH,Humidity,HourlyPrecipIn,Conditions,Clouds,dailyrainin,SoftwareType,DateUTC
2015-07-29 00:03:00,77.0,72.0,30.02,North,0,0.0,-999.0,83,-99.99,,,-99.99,,2015-07-29 04:03:00,
2015-07-29 00:13:00,75.0,72.0,30.02,North,0,0.0,-999.0,88,-99.99,,,-99.99,,2015-07-29 04:13:00,
2015-07-29 00:23:00,75.0,72.0,30.02,North,0,0.0,-999.0,88,-99.99,,,-99.99,,2015-07-29 04:23:00,
2015-07-29 00:34:00,77.0,72.0,30.02,North,0,0.0,-999.0,83,-99.99,,,-99.99,,2015-07-29 04:34:00,
2015-07-29 01:05:00,77.0,72.0,30.01,North,0,0.0,-999.0,83,-99.99,,,-99.99,,2015-07-29 05:05:00,
2015-07-29 01:13:00,75.0,72.0,30.00,ESE,110,3.0,-999.0,88,-99.99,,,-99.99,,2015-07-29 05:13:00,
2015-07-29 01:23:00,75.0,72.0,30.00,ESE,110,3.0,-999.0,88,-99.99,,,-99.99,,2015-07-29 05:23:00,
2015-07-29 01:34:00,73.0,72.0,30.00,SE,130,3.0,-999.0,94,-99.99,,,-99.99,,2015-07-29 05:34:00,
2015-07-29 01:44:00,73.0,72.0,29.99,North,0,0.0,-999.0,94,-99.99,,,-99.99,,2015-07-29 05:44:00,
2015-07-29 02:03:00,73.0,72.0,29.99,ESE,110,3.0,-999.0,94,-99.99,,,-99.99,,2015-07-29 06:03:00,
2015-07-29 02:13:00,73.0,72.0,29.99,North,0,0.0,-999.0,94,-99.99,,,-99.99,,2015-07-29 06:13:00,
2015-07-29 02:23:00,73.0,72.0,29.98,North,0,0.0,-999.0,94,-99.99,,,-99.99,,2015-07-29 06:23:00,
2015-07-29 02:33:00,75.0,72.0,29.98,East,100,3.0,-999.0,88,-99.99,,,-99.99,,2015-07-29 06:33:00,
2015-07-29 02:44:00,75.0,72.0,29.98,East,90,3.0,-999.0,88,-99.99,,,-99.99,,2015-07-29 06:44:00,
2015-07-29 02:54:00,75.0,72.0,29.98,East,90,5.0,-999.0,88,-99.99,,,-99.99,,2015-07-29 06:54:00,
2015-07-29 03:04:00,75.0,72.0,29.98,East,90,5.0,-999.0,88,-99.99,,,-99.99,,2015-07-29 07:04:00,
2015-07-29 03:13:00,73.0,72.0,29.98,North,0,0.0,-999.0,94,-99.99,,,-99.99,,2015-07-29 07:13:00,
2015-07-29 03:23:00,73.0,72.0,29.97,ESE,120,5.0,-999.0,94,-99.99,,,-99.99,,2015-07-29 07:23:00,
2015-07-29 03:34:00,73.0,72.0,29.97,North,0,0.0,-999.0,94,-99.99,,,-99.99,,2015-07-29 07:34:00,
2015-07-29 03:43:00,73.0,72.0,29.97,North,0,0.0,-999.0,94,-99.99,,,-99.99,,2015-07-29 07:43:00,
2015-07-29 04:03:00,73.0,72.0,29.97,North,0,0.0,-999.0,94,-99.99,,,-99.99,,2015-07-29 08:03:00,
2015-07-29 04:13:00,73.0,70.0,29.96,East,100,3.0,-999.0,88,-99.99,,,-99.99,,2015-07-29 08:13:00,
2015-07-29 04:23:00,73.0,70.0,29.96,ESE,110,3.0,-999.0,88,-99.99,,,-99.99,,2015-07-29 08:23:00,
2015-07-29 04:33:00,73.0,72.0,29.97,North,0,0.0,-999.0,94,-99.99,,,-99.99,,2015-07-29 08:33:00,
2015-07-29 04:54:00,73.0,72.0,29.98,North,0,0.0,-999.0,94,-99.99,,,-99.99,,2015-07-29 08:54:00,
2015-07-29 05:03:00,73.0,72.0,29.98,North,0,0.0,-999.0,94,-99.99,,,-99.99,,2015-07-29 09:03:00,
2015-07-29 05:13:00,73.0,70.0,29.98,North,0,0.0,-999.0,88,-99.99,,,-99.99,,2015-07-29 09:13:00,
2015-07-29 05:23:00,73.0,72.0,29.98,North,0,0.0,-999.0,94,-99.99,,,-99.99,,2015-07-29 09:23:00,
2015-07-29 05:33:00,72.0,70.0,29.98,North,0,0.0,-999.0,94,-99.99,,,-99.99,,2015-07-29 09:33:00,
2015-07-29 05:44:00,72.0,70.0,29.98,North,0,0.0,-999.0,94,-99.99,,,-99.99,,2015-07-29 09:44:00,
2015-07-29 05:54:00,72.0,70.0,29.98,North,0,0.0,-999.0,94,-99.99,,,-99.99,,2015-07-29 09:54:00,
2015-07-29 06:03:00,72.0,70.0,29.98,North,0,0.0,-999.0,94,-99.99,,,-99.99,,2015-07-29 10:03:00,
2015-07-29 06:23:00,72.0,70.0,29.98,ESE,110,3.0,-999.0,94,-99.99,,,-99.99,,2015-07-29 10:23:00,
2015-07-29 06:34:00,72.0,70.0,29.98,North,0,0.0,-999.0,94,-99.99,,,-99.99,,2015-07-29 10:34:00,
2015-07-29 06:46:00,72.0,70.0,29.98,North,0,0.0,-999.0,94,-99.99,,,-99.99,,2015-07-29 10:46:00,
2015-07-29 06:54:00,72.0,70.0,29.98,North,0,0.0,-999.0,94,-99.99,,,-99.99,,2015-07-29 10:54:00,
2015-07-29 07:04:00,72.0,70.0,29.98,North,0,0.0,-999.0,94,-99.99,,,-99.99,,2015-07-29 11:04:00,
2015-07-29 07:13:00,72.0,70.0,29.99,North,0,0.0,-999.0,94,-99.99,,,-99.99,,2015-07-29 11:13:00,
2015-07-29 07:23:00,72.0,70.0,29.99,North,0,0.0,-999.0,94,-99.99,,,-99.99,,2015-07-29 11:23:00,
2015-07-29 07:33:00,72.0,70.0,29.99,North,0,0.0,-999.0,94,-99.99,,,-99.99,,2015-07-29 11:33:00,
2015-07-29 07:44:00,72.0,72.0,30.00,North,0,0.0,-999.0,100,-99.99,,,-99.99,,2015-07-29 11:44:00,
2015-07-29 07:54:00,73.0,72.0,30.00,North,0,0.0,-999.0,94,-99.99,,,-99.99,,2015-07-29 11:54:00,
2015-07-29 08:03:00,73.0,72.0,30.00,North,0,0.0,-999.0,94,-99.99,,,-99.99,,2015-07-29 12:03:00,
2015-07-29 08:13:00,75.0,72.0,30.00,North,0,0.0,-999.0,88,-99.99,,,-99.99,,2015-07-29 12:13:00,
2015-07-29 08:24:00,75.0,73.0,30.00,North,0,0.0,-999.0,94,-99.99,,,-99.99,,2015-07-29 12:24:00,
2015-07-29 08:34:00,75.0,73.0,30.01,North,0,0.0,-999.0,94,-99.99,,,-99.99,,2015-07-29 12:34:00,
2015-07-29 08:43:00,77.0,73.0,30.01,North,0,0.0,-999.0,88,-99.99,,,-99.99,,2015-07-29 12:43:00,
2015-07-29 08:54:00,77.0,73.0,30.01,North,0,0.0,-999.0,88,-99.99,,,-99.99,,2015-07-29 12:54:00,
2015-07-29 09:03:00,77.0,73.0,30.01,North,0,0.0,-999.0,88,-99.99,,,-99.99,,2015-07-29 13:03:00,
2015-07-29 09:13:00,79.0,73.0,30.00,North,0,0.0,-999.0,83,-99.99,,,-99.99,,2015-07-29 13:13:00,
2015-07-29 09:23:00,79.0,73.0,30.01,North,0,0.0,-999.0,83,-99.99,,,-99.99,,2015-07-29 13:23:00,
2015-07-29 09:34:00,79.0,75.0,30.01,North,0,0.0,-999.0,88,-99.99,,,-99.99,,2015-07-29 13:34:00,
2015-07-29 09:43:00,81.0,75.0,30.01,North,0,0.0,-999.0,83,-99.99,,,-99.99,,2015-07-29 13:43:00,
2015-07-29 09:54:00,81.0,75.0,30.01,North,0,0.0,-999.0,83,-99.99,,,-99.99,,2015-07-29 13:54:00,
2015-07-29 10:03:00,81.0,75.0,30.01,North,0,0.0,-999.0,83,-99.99,,,-99.99,,2015-07-29 14:03:00,
2015-07-29 10:13:00,81.0,75.0,30.01,North,0,0.0,-999.0,83,-99.99,,,-99.99,,2015-07-29 14:13:00,